sensor_id;sensor_type;location;lat;lon;timestamp;P1;durP1;ratioP1;P2;durP2;ratioP2
79399;SDS011;68856;45.586;10.264;2024-02-15T00:00:15;31.15;;;21.55;;
79399;SDS011;68856;45.586;10.264;2024-02-15T00:02:42;28.55;;;20.65;;
79399;SDS011;68856;45.586;10.264;2024-02-15T00:05:09;35.40;;;21.08;;
79399;SDS011;68856;45.586;10.264;2024-02-15T00:07:36;30.23;;;19.92;;
79399;SDS011;68856;45.586;10.264;2024-02-15T00:10:02;30.08;;;20.42;;
79399;SDS011;68856;45.586;10.264;2024-02-15T00:12:29;34.13;;;21.20;;
79399;SDS011;68856;45.586;10.264;2024-02-15T00:14:55;28.08;;;19.27;;
79399;SDS011;68856;45.586;10.264;2024-02-15T00:17:23;31.73;;;20.75;;
79399;SDS011;68856;45.586;10.264;2024-02-15T00:19:50;29.63;;;20.13;;
79399;SDS011;68856;45.586;10.264;2024-02-15T00:22:16;28.75;;;20.30;;
79399;SDS011;68856;45.586;10.264;2024-02-15T00:24:42;29.65;;;20.85;;
79399;SDS011;68856;45.586;10.264;2024-02-15T00:27:10;28.35;;;19.73;;
79399;SDS011;68856;45.586;10.264;2024-02-15T00:29:36;28.65;;;19.55;;
79399;SDS011;68856;45.586;10.264;2024-02-15T00:32:02;33.15;;;21.23;;
79399;SDS011;68856;45.586;10.264;2024-02-15T00:34:28;27.90;;;19.80;;
79399;SDS011;68856;45.586;10.264;2024-02-15T00:36:55;30.10;;;19.17;;
79399;SDS011;68856;45.586;10.264;2024-02-15T00:39:21;28.27;;;18.73;;
79399;SDS011;68856;45.586;10.264;2024-02-15T00:41:47;31.38;;;19.92;;
79399;SDS011;68856;45.586;10.264;2024-02-15T00:44:13;29.70;;;19.58;;
79399;SDS011;68856;45.586;10.264;2024-02-15T00:46:39;30.58;;;20.23;;
79399;SDS011;68856;45.586;10.264;2024-02-15T00:49:06;33.75;;;20.55;;
79399;SDS011;68856;45.586;10.264;2024-02-15T00:51:33;29.67;;;19.88;;
79399;SDS011;68856;45.586;10.264;2024-02-15T00:54:00;28.75;;;18.42;;
79399;SDS011;68856;45.586;10.264;2024-02-15T00:56:26;29.30;;;19.15;;
79399;SDS011;68856;45.586;10.264;2024-02-15T00:58:54;27.70;;;20.27;;
79399;SDS011;68856;45.586;10.264;2024-02-15T01:01:20;28.38;;;19.17;;
79399;SDS011;68856;45.586;10.264;2024-02-15T01:03:46;31.95;;;21.35;;
79399;SDS011;68856;45.586;10.264;2024-02-15T01:06:12;35.33;;;20.67;;
79399;SDS011;68856;45.586;10.264;2024-02-15T01:08:39;30.55;;;19.75;;
79399;SDS011;68856;45.586;10.264;2024-02-15T01:11:05;27.60;;;18.88;;
79399;SDS011;68856;45.586;10.264;2024-02-15T01:13:31;30.25;;;20.70;;
79399;SDS011;68856;45.586;10.264;2024-02-15T01:15:57;30.05;;;20.75;;
79399;SDS011;68856;45.586;10.264;2024-02-15T01:18:23;28.63;;;20.25;;
79399;SDS011;68856;45.586;10.264;2024-02-15T01:20:50;35.20;;;21.83;;
79399;SDS011;68856;45.586;10.264;2024-02-15T01:23:17;30.42;;;20.35;;
79399;SDS011;68856;45.586;10.264;2024-02-15T01:25:43;30.52;;;21.35;;
79399;SDS011;68856;45.586;10.264;2024-02-15T01:28:10;33.38;;;20.73;;
79399;SDS011;68856;45.586;10.264;2024-02-15T01:30:36;31.73;;;20.38;;
79399;SDS011;68856;45.586;10.264;2024-02-15T01:33:03;27.35;;;18.75;;
79399;SDS011;68856;45.586;10.264;2024-02-15T01:35:29;27.42;;;19.10;;
79399;SDS011;68856;45.586;10.264;2024-02-15T01:37:55;31.05;;;20.35;;
79399;SDS011;68856;45.586;10.264;2024-02-15T01:40:21;28.73;;;19.23;;
79399;SDS011;68856;45.586;10.264;2024-02-15T01:42:47;28.88;;;19.88;;
79399;SDS011;68856;45.586;10.264;2024-02-15T01:45:16;30.45;;;20.95;;
79399;SDS011;68856;45.586;10.264;2024-02-15T01:47:42;31.35;;;20.02;;
79399;SDS011;68856;45.586;10.264;2024-02-15T01:50:12;27.77;;;19.50;;
79399;SDS011;68856;45.586;10.264;2024-02-15T01:52:39;30.70;;;20.63;;
79399;SDS011;68856;45.586;10.264;2024-02-15T01:55:07;29.48;;;21.92;;
79399;SDS011;68856;45.586;10.264;2024-02-15T01:57:36;29.10;;;19.77;;
79399;SDS011;68856;45.586;10.264;2024-02-15T02:00:04;32.10;;;21.27;;
79399;SDS011;68856;45.586;10.264;2024-02-15T02:02:30;31.80;;;21.60;;
79399;SDS011;68856;45.586;10.264;2024-02-15T02:04:58;31.25;;;21.50;;
79399;SDS011;68856;45.586;10.264;2024-02-15T02:07:24;30.70;;;20.33;;
79399;SDS011;68856;45.586;10.264;2024-02-15T02:09:51;34.83;;;21.77;;
79399;SDS011;68856;45.586;10.264;2024-02-15T02:12:17;29.15;;;19.98;;
79399;SDS011;68856;45.586;10.264;2024-02-15T02:14:43;31.10;;;20.17;;
79399;SDS011;68856;45.586;10.264;2024-02-15T02:17:12;29.50;;;19.90;;
79399;SDS011;68856;45.586;10.264;2024-02-15T02:19:39;31.00;;;20.98;;
79399;SDS011;68856;45.586;10.264;2024-02-15T02:22:05;32.08;;;20.65;;
79399;SDS011;68856;45.586;10.264;2024-02-15T02:24:35;28.27;;;19.80;;
79399;SDS011;68856;45.586;10.264;2024-02-15T02:27:05;29.88;;;19.73;;
79399;SDS011;68856;45.586;10.264;2024-02-15T02:29:33;34.20;;;22.05;;
79399;SDS011;68856;45.586;10.264;2024-02-15T02:31:59;30.98;;;20.83;;
79399;SDS011;68856;45.586;10.264;2024-02-15T02:34:25;32.17;;;20.60;;
79399;SDS011;68856;45.586;10.264;2024-02-15T02:36:51;29.83;;;19.88;;
79399;SDS011;68856;45.586;10.264;2024-02-15T02:39:17;30.73;;;21.63;;
79399;SDS011;68856;45.586;10.264;2024-02-15T02:41:43;34.20;;;22.40;;
79399;SDS011;68856;45.586;10.264;2024-02-15T02:44:09;30.23;;;20.83;;
79399;SDS011;68856;45.586;10.264;2024-02-15T02:46:35;30.25;;;20.30;;
79399;SDS011;68856;45.586;10.264;2024-02-15T02:49:01;32.17;;;20.45;;
79399;SDS011;68856;45.586;10.264;2024-02-15T02:51:27;38.30;;;22.05;;
79399;SDS011;68856;45.586;10.264;2024-02-15T02:53:54;32.35;;;21.23;;
79399;SDS011;68856;45.586;10.264;2024-02-15T02:56:20;33.00;;;20.52;;
79399;SDS011;68856;45.586;10.264;2024-02-15T02:58:46;33.08;;;20.75;;
79399;SDS011;68856;45.586;10.264;2024-02-15T03:01:12;32.25;;;22.10;;
79399;SDS011;68856;45.586;10.264;2024-02-15T03:03:38;34.50;;;21.95;;
79399;SDS011;68856;45.586;10.264;2024-02-15T03:06:05;33.50;;;22.10;;
79399;SDS011;68856;45.586;10.264;2024-02-15T03:08:31;36.00;;;22.70;;
79399;SDS011;68856;45.586;10.264;2024-02-15T03:10:57;33.90;;;21.50;;
79399;SDS011;68856;45.586;10.264;2024-02-15T03:13:23;34.63;;;21.77;;
79399;SDS011;68856;45.586;10.264;2024-02-15T03:15:49;32.47;;;20.75;;
79399;SDS011;68856;45.586;10.264;2024-02-15T03:18:16;34.83;;;21.50;;
79399;SDS011;68856;45.586;10.264;2024-02-15T03:20:42;29.25;;;20.98;;
79399;SDS011;68856;45.586;10.264;2024-02-15T03:23:08;31.67;;;21.95;;
79399;SDS011;68856;45.586;10.264;2024-02-15T03:25:35;37.67;;;22.33;;
79399;SDS011;68856;45.586;10.264;2024-02-15T03:28:02;36.70;;;23.60;;
79399;SDS011;68856;45.586;10.264;2024-02-15T03:30:29;32.17;;;21.98;;
79399;SDS011;68856;45.586;10.264;2024-02-15T03:32:56;30.50;;;22.27;;
79399;SDS011;68856;45.586;10.264;2024-02-15T03:35:24;33.78;;;22.42;;
79399;SDS011;68856;45.586;10.264;2024-02-15T03:37:51;34.15;;;21.83;;
79399;SDS011;68856;45.586;10.264;2024-02-15T03:40:18;34.58;;;22.83;;
79399;SDS011;68856;45.586;10.264;2024-02-15T03:42:44;34.28;;;22.45;;
79399;SDS011;68856;45.586;10.264;2024-02-15T03:45:11;36.35;;;22.23;;
79399;SDS011;68856;45.586;10.264;2024-02-15T03:47:38;32.20;;;21.65;;
79399;SDS011;68856;45.586;10.264;2024-02-15T03:52:30;34.58;;;23.13;;
79399;SDS011;68856;45.586;10.264;2024-02-15T03:54:57;31.23;;;22.20;;
79399;SDS011;68856;45.586;10.264;2024-02-15T03:57:23;30.83;;;21.02;;
79399;SDS011;68856;45.586;10.264;2024-02-15T03:59:49;38.03;;;23.98;;
79399;SDS011;68856;45.586;10.264;2024-02-15T04:02:21;33.53;;;21.30;;
79399;SDS011;68856;45.586;10.264;2024-02-15T04:04:48;34.60;;;22.50;;
79399;SDS011;68856;45.586;10.264;2024-02-15T04:07:18;31.08;;;21.25;;
79399;SDS011;68856;45.586;10.264;2024-02-15T04:09:44;31.17;;;21.00;;
79399;SDS011;68856;45.586;10.264;2024-02-15T04:12:10;34.70;;;21.88;;
79399;SDS011;68856;45.586;10.264;2024-02-15T04:14:37;36.70;;;21.50;;
79399;SDS011;68856;45.586;10.264;2024-02-15T04:17:03;35.38;;;22.23;;
79399;SDS011;68856;45.586;10.264;2024-02-15T04:19:30;33.40;;;22.30;;
79399;SDS011;68856;45.586;10.264;2024-02-15T04:21:57;34.55;;;22.17;;
79399;SDS011;68856;45.586;10.264;2024-02-15T04:24:23;33.33;;;22.02;;
79399;SDS011;68856;45.586;10.264;2024-02-15T04:26:50;31.83;;;20.35;;
79399;SDS011;68856;45.586;10.264;2024-02-15T04:29:16;34.00;;;22.00;;
79399;SDS011;68856;45.586;10.264;2024-02-15T04:31:46;31.42;;;20.75;;
79399;SDS011;68856;45.586;10.264;2024-02-15T04:34:17;35.30;;;22.50;;
79399;SDS011;68856;45.586;10.264;2024-02-15T04:36:47;30.83;;;21.00;;
79399;SDS011;68856;45.586;10.264;2024-02-15T04:39:20;30.63;;;21.17;;
79399;SDS011;68856;45.586;10.264;2024-02-15T04:41:52;33.75;;;22.80;;
79399;SDS011;68856;45.586;10.264;2024-02-15T04:44:18;35.63;;;23.85;;
79399;SDS011;68856;45.586;10.264;2024-02-15T04:46:52;38.10;;;21.85;;
79399;SDS011;68856;45.586;10.264;2024-02-15T04:49:18;35.03;;;21.65;;
79399;SDS011;68856;45.586;10.264;2024-02-15T04:51:45;36.08;;;22.48;;
79399;SDS011;68856;45.586;10.264;2024-02-15T04:54:12;36.22;;;21.95;;
79399;SDS011;68856;45.586;10.264;2024-02-15T04:56:42;36.08;;;21.88;;
79399;SDS011;68856;45.586;10.264;2024-02-15T04:59:08;35.15;;;21.70;;
79399;SDS011;68856;45.586;10.264;2024-02-15T05:01:40;35.80;;;22.75;;
79399;SDS011;68856;45.586;10.264;2024-02-15T05:04:08;34.03;;;21.45;;
79399;SDS011;68856;45.586;10.264;2024-02-15T05:06:34;36.47;;;22.77;;
79399;SDS011;68856;45.586;10.264;2024-02-15T05:09:02;36.20;;;22.13;;
79399;SDS011;68856;45.586;10.264;2024-02-15T05:11:37;34.60;;;22.25;;
79399;SDS011;68856;45.586;10.264;2024-02-15T05:14:06;37.53;;;23.25;;
79399;SDS011;68856;45.586;10.264;2024-02-15T05:16:35;39.55;;;24.23;;
79399;SDS011;68856;45.586;10.264;2024-02-15T05:19:10;39.38;;;22.80;;
79399;SDS011;68856;45.586;10.264;2024-02-15T05:21:37;35.65;;;21.90;;
79399;SDS011;68856;45.586;10.264;2024-02-15T05:24:03;31.80;;;20.67;;
79399;SDS011;68856;45.586;10.264;2024-02-15T05:26:29;38.05;;;22.83;;
79399;SDS011;68856;45.586;10.264;2024-02-15T05:28:56;35.50;;;23.10;;
79399;SDS011;68856;45.586;10.264;2024-02-15T05:31:22;36.78;;;22.88;;
79399;SDS011;68856;45.586;10.264;2024-02-15T05:33:51;38.63;;;22.85;;
79399;SDS011;68856;45.586;10.264;2024-02-15T05:36:17;31.92;;;21.35;;
79399;SDS011;68856;45.586;10.264;2024-02-15T05:38:46;36.72;;;22.33;;
79399;SDS011;68856;45.586;10.264;2024-02-15T05:41:12;33.65;;;20.88;;
79399;SDS011;68856;45.586;10.264;2024-02-15T05:43:39;34.17;;;21.48;;
79399;SDS011;68856;45.586;10.264;2024-02-15T05:46:06;33.55;;;20.63;;
79399;SDS011;68856;45.586;10.264;2024-02-15T05:48:33;36.65;;;22.15;;
79399;SDS011;68856;45.586;10.264;2024-02-15T05:51:08;33.83;;;21.65;;
79399;SDS011;68856;45.586;10.264;2024-02-15T05:53:35;35.85;;;21.60;;
79399;SDS011;68856;45.586;10.264;2024-02-15T05:56:04;37.60;;;22.75;;
79399;SDS011;68856;45.586;10.264;2024-02-15T05:58:32;38.15;;;22.48;;
79399;SDS011;68856;45.586;10.264;2024-02-15T06:00:58;34.75;;;22.05;;
79399;SDS011;68856;45.586;10.264;2024-02-15T06:03:29;31.73;;;21.00;;
79399;SDS011;68856;45.586;10.264;2024-02-15T06:05:56;33.97;;;21.73;;
79399;SDS011;68856;45.586;10.264;2024-02-15T06:08:30;30.92;;;20.88;;
79399;SDS011;68856;45.586;10.264;2024-02-15T06:10:56;34.85;;;22.05;;
79399;SDS011;68856;45.586;10.264;2024-02-15T06:13:22;33.95;;;21.70;;
79399;SDS011;68856;45.586;10.264;2024-02-15T06:15:49;36.15;;;24.73;;
79399;SDS011;68856;45.586;10.264;2024-02-15T06:18:25;35.60;;;23.15;;
79399;SDS011;68856;45.586;10.264;2024-02-15T06:20:54;39.10;;;23.70;;
79399;SDS011;68856;45.586;10.264;2024-02-15T06:23:22;37.00;;;23.48;;
79399;SDS011;68856;45.586;10.264;2024-02-15T06:25:50;34.03;;;22.33;;
79399;SDS011;68856;45.586;10.264;2024-02-15T06:28:18;42.47;;;25.38;;
79399;SDS011;68856;45.586;10.264;2024-02-15T06:31:02;42.38;;;23.20;;
79399;SDS011;68856;45.586;10.264;2024-02-15T06:33:47;38.33;;;24.38;;
79399;SDS011;68856;45.586;10.264;2024-02-15T06:36:31;42.28;;;23.05;;
79399;SDS011;68856;45.586;10.264;2024-02-15T06:39:16;48.88;;;23.88;;
79399;SDS011;68856;45.586;10.264;2024-02-15T06:42:01;36.70;;;21.83;;
79399;SDS011;68856;45.586;10.264;2024-02-15T06:44:27;39.42;;;24.30;;
79399;SDS011;68856;45.586;10.264;2024-02-15T06:46:54;35.38;;;23.40;;
79399;SDS011;68856;45.586;10.264;2024-02-15T06:49:22;39.78;;;24.63;;
79399;SDS011;68856;45.586;10.264;2024-02-15T06:51:52;41.70;;;24.77;;
79399;SDS011;68856;45.586;10.264;2024-02-15T06:54:18;40.80;;;24.23;;
79399;SDS011;68856;45.586;10.264;2024-02-15T06:56:44;37.83;;;24.10;;
79399;SDS011;68856;45.586;10.264;2024-02-15T06:59:12;38.05;;;23.27;;
79399;SDS011;68856;45.586;10.264;2024-02-15T07:01:41;40.38;;;25.02;;
79399;SDS011;68856;45.586;10.264;2024-02-15T07:04:08;43.05;;;25.95;;
79399;SDS011;68856;45.586;10.264;2024-02-15T07:06:35;48.90;;;26.85;;
79399;SDS011;68856;45.586;10.264;2024-02-15T07:09:02;42.50;;;26.02;;
79399;SDS011;68856;45.586;10.264;2024-02-15T07:11:28;39.08;;;24.23;;
79399;SDS011;68856;45.586;10.264;2024-02-15T07:13:55;45.65;;;25.20;;
79399;SDS011;68856;45.586;10.264;2024-02-15T07:16:22;46.53;;;28.05;;
79399;SDS011;68856;45.586;10.264;2024-02-15T07:18:48;42.30;;;24.55;;
79399;SDS011;68856;45.586;10.264;2024-02-15T07:21:15;39.92;;;24.48;;
79399;SDS011;68856;45.586;10.264;2024-02-15T07:23:44;38.28;;;24.02;;
79399;SDS011;68856;45.586;10.264;2024-02-15T07:26:11;47.25;;;25.30;;
79399;SDS011;68856;45.586;10.264;2024-02-15T07:28:37;35.90;;;23.30;;
79399;SDS011;68856;45.586;10.264;2024-02-15T07:31:03;38.03;;;22.77;;
79399;SDS011;68856;45.586;10.264;2024-02-15T07:33:29;36.15;;;23.83;;
79399;SDS011;68856;45.586;10.264;2024-02-15T07:35:55;35.58;;;22.80;;
79399;SDS011;68856;45.586;10.264;2024-02-15T07:38:22;36.65;;;23.38;;
79399;SDS011;68856;45.586;10.264;2024-02-15T07:40:50;39.88;;;24.67;;
79399;SDS011;68856;45.586;10.264;2024-02-15T07:43:16;36.17;;;22.27;;
79399;SDS011;68856;45.586;10.264;2024-02-15T07:45:42;39.60;;;24.15;;
79399;SDS011;68856;45.586;10.264;2024-02-15T07:48:08;41.97;;;23.70;;
79399;SDS011;68856;45.586;10.264;2024-02-15T07:50:34;37.65;;;22.77;;
79399;SDS011;68856;45.586;10.264;2024-02-15T07:53:02;43.90;;;24.75;;
79399;SDS011;68856;45.586;10.264;2024-02-15T07:55:32;38.20;;;24.85;;
79399;SDS011;68856;45.586;10.264;2024-02-15T07:57:59;50.88;;;30.13;;
79399;SDS011;68856;45.586;10.264;2024-02-15T08:00:25;43.47;;;28.10;;
79399;SDS011;68856;45.586;10.264;2024-02-15T08:02:53;43.42;;;29.20;;
79399;SDS011;68856;45.586;10.264;2024-02-15T08:05:19;46.83;;;27.83;;
79399;SDS011;68856;45.586;10.264;2024-02-15T08:07:45;61.00;;;31.33;;
79399;SDS011;68856;45.586;10.264;2024-02-15T08:10:15;45.80;;;28.98;;
79399;SDS011;68856;45.586;10.264;2024-02-15T08:12:41;48.67;;;31.27;;
79399;SDS011;68856;45.586;10.264;2024-02-15T08:15:08;44.72;;;29.30;;
79399;SDS011;68856;45.586;10.264;2024-02-15T08:17:44;46.95;;;28.75;;
79399;SDS011;68856;45.586;10.264;2024-02-15T08:20:13;44.67;;;28.58;;
79399;SDS011;68856;45.586;10.264;2024-02-15T08:22:40;47.65;;;30.38;;
79399;SDS011;68856;45.586;10.264;2024-02-15T08:25:09;45.53;;;29.02;;
79399;SDS011;68856;45.586;10.264;2024-02-15T08:27:46;45.50;;;28.45;;
79399;SDS011;68856;45.586;10.264;2024-02-15T08:30:14;40.75;;;26.13;;
79399;SDS011;68856;45.586;10.264;2024-02-15T08:32:40;35.53;;;24.75;;
79399;SDS011;68856;45.586;10.264;2024-02-15T08:35:10;37.63;;;23.75;;
79399;SDS011;68856;45.586;10.264;2024-02-15T08:37:36;36.58;;;23.77;;
79399;SDS011;68856;45.586;10.264;2024-02-15T08:40:04;40.70;;;25.25;;
79399;SDS011;68856;45.586;10.264;2024-02-15T08:42:35;42.55;;;27.15;;
79399;SDS011;68856;45.586;10.264;2024-02-15T08:45:03;43.65;;;27.00;;
79399;SDS011;68856;45.586;10.264;2024-02-15T08:47:30;49.03;;;28.77;;
79399;SDS011;68856;45.586;10.264;2024-02-15T08:49:56;42.30;;;28.05;;
79399;SDS011;68856;45.586;10.264;2024-02-15T08:52:24;45.15;;;29.00;;
79399;SDS011;68856;45.586;10.264;2024-02-15T08:54:51;45.47;;;28.15;;
79399;SDS011;68856;45.586;10.264;2024-02-15T08:57:18;41.75;;;26.75;;
79399;SDS011;68856;45.586;10.264;2024-02-15T08:59:44;41.17;;;25.95;;
79399;SDS011;68856;45.586;10.264;2024-02-15T09:02:10;39.95;;;26.50;;
79399;SDS011;68856;45.586;10.264;2024-02-15T09:04:36;43.00;;;27.33;;
79399;SDS011;68856;45.586;10.264;2024-02-15T09:07:02;41.95;;;24.95;;
79399;SDS011;68856;45.586;10.264;2024-02-15T09:09:29;38.47;;;24.20;;
79399;SDS011;68856;45.586;10.264;2024-02-15T09:11:56;38.83;;;25.17;;
79399;SDS011;68856;45.586;10.264;2024-02-15T09:14:23;38.88;;;25.15;;
79399;SDS011;68856;45.586;10.264;2024-02-15T09:16:49;39.65;;;25.27;;
79399;SDS011;68856;45.586;10.264;2024-02-15T09:19:15;37.65;;;24.30;;
79399;SDS011;68856;45.586;10.264;2024-02-15T09:21:41;39.03;;;23.92;;
79399;SDS011;68856;45.586;10.264;2024-02-15T09:24:07;41.60;;;25.95;;
79399;SDS011;68856;45.586;10.264;2024-02-15T09:26:33;43.63;;;25.00;;
79399;SDS011;68856;45.586;10.264;2024-02-15T09:28:59;35.80;;;24.35;;
79399;SDS011;68856;45.586;10.264;2024-02-15T09:31:25;36.65;;;24.17;;
79399;SDS011;68856;45.586;10.264;2024-02-15T09:33:51;36.83;;;24.27;;
79399;SDS011;68856;45.586;10.264;2024-02-15T09:36:18;35.42;;;23.83;;
79399;SDS011;68856;45.586;10.264;2024-02-15T09:38:44;36.80;;;23.90;;
79399;SDS011;68856;45.586;10.264;2024-02-15T09:41:11;33.92;;;23.35;;
79399;SDS011;68856;45.586;10.264;2024-02-15T09:43:37;38.63;;;24.00;;
79399;SDS011;68856;45.586;10.264;2024-02-15T09:46:04;37.55;;;25.00;;
79399;SDS011;68856;45.586;10.264;2024-02-15T09:48:31;35.65;;;23.45;;
79399;SDS011;68856;45.586;10.264;2024-02-15T09:50:58;38.85;;;24.58;;
79399;SDS011;68856;45.586;10.264;2024-02-15T09:53:25;38.45;;;24.48;;
79399;SDS011;68856;45.586;10.264;2024-02-15T09:55:54;34.88;;;24.33;;
79399;SDS011;68856;45.586;10.264;2024-02-15T09:58:20;36.95;;;23.23;;
79399;SDS011;68856;45.586;10.264;2024-02-15T10:00:48;36.10;;;23.55;;
79399;SDS011;68856;45.586;10.264;2024-02-15T10:03:16;36.40;;;23.20;;
79399;SDS011;68856;45.586;10.264;2024-02-15T10:05:46;34.67;;;22.90;;
79399;SDS011;68856;45.586;10.264;2024-02-15T10:08:14;34.97;;;22.55;;
79399;SDS011;68856;45.586;10.264;2024-02-15T10:10:40;33.47;;;21.70;;
79399;SDS011;68856;45.586;10.264;2024-02-15T10:13:08;32.60;;;22.63;;
79399;SDS011;68856;45.586;10.264;2024-02-15T10:15:38;32.92;;;21.27;;
79399;SDS011;68856;45.586;10.264;2024-02-15T10:18:09;33.53;;;22.67;;
79399;SDS011;68856;45.586;10.264;2024-02-15T10:20:41;37.53;;;23.35;;
79399;SDS011;68856;45.586;10.264;2024-02-15T10:23:11;33.75;;;22.67;;
79399;SDS011;68856;45.586;10.264;2024-02-15T10:25:38;39.20;;;23.77;;
79399;SDS011;68856;45.586;10.264;2024-02-15T10:28:05;38.55;;;24.13;;
79399;SDS011;68856;45.586;10.264;2024-02-15T10:30:33;37.30;;;23.42;;
79399;SDS011;68856;45.586;10.264;2024-02-15T10:33:00;37.58;;;23.95;;
79399;SDS011;68856;45.586;10.264;2024-02-15T10:35:26;36.47;;;24.92;;
79399;SDS011;68856;45.586;10.264;2024-02-15T10:37:52;36.72;;;25.08;;
79399;SDS011;68856;45.586;10.264;2024-02-15T10:40:30;42.28;;;27.08;;
79399;SDS011;68856;45.586;10.264;2024-02-15T10:42:56;36.38;;;25.33;;
79399;SDS011;68856;45.586;10.264;2024-02-15T10:45:24;36.40;;;27.52;;
79399;SDS011;68856;45.586;10.264;2024-02-15T10:47:51;42.72;;;28.38;;
79399;SDS011;68856;45.586;10.264;2024-02-15T10:50:18;42.35;;;26.58;;
79399;SDS011;68856;45.586;10.264;2024-02-15T10:52:57;37.90;;;27.75;;
79399;SDS011;68856;45.586;10.264;2024-02-15T10:55:37;39.10;;;26.52;;
79399;SDS011;68856;45.586;10.264;2024-02-15T10:58:05;38.10;;;26.83;;
79399;SDS011;68856;45.586;10.264;2024-02-15T11:00:34;39.08;;;28.15;;
79399;SDS011;68856;45.586;10.264;2024-02-15T11:03:04;44.17;;;29.15;;
79399;SDS011;68856;45.586;10.264;2024-02-15T11:05:35;40.58;;;28.92;;
79399;SDS011;68856;45.586;10.264;2024-02-15T11:08:03;44.17;;;29.75;;
79399;SDS011;68856;45.586;10.264;2024-02-15T11:10:31;42.80;;;29.90;;
79399;SDS011;68856;45.586;10.264;2024-02-15T11:12:58;45.58;;;29.77;;
79399;SDS011;68856;45.586;10.264;2024-02-15T11:18:41;49.97;;;29.80;;
79399;SDS011;68856;45.586;10.264;2024-02-15T11:21:00;45.25;;;30.55;;
79399;SDS011;68856;45.586;10.264;2024-02-15T11:23:26;42.75;;;30.17;;
79399;SDS011;68856;45.586;10.264;2024-02-15T11:25:52;42.63;;;30.02;;
79399;SDS011;68856;45.586;10.264;2024-02-15T11:30:47;48.63;;;31.25;;
79399;SDS011;68856;45.586;10.264;2024-02-15T11:33:29;40.35;;;29.73;;
79399;SDS011;68856;45.586;10.264;2024-02-15T11:36:03;46.53;;;28.98;;
79399;SDS011;68856;45.586;10.264;2024-02-15T11:38:32;42.72;;;29.92;;
79399;SDS011;68856;45.586;10.264;2024-02-15T11:41:00;45.50;;;31.27;;
79399;SDS011;68856;45.586;10.264;2024-02-15T11:43:59;42.78;;;29.30;;
79399;SDS011;68856;45.586;10.264;2024-02-15T11:46:22;45.80;;;28.80;;
79399;SDS011;68856;45.586;10.264;2024-02-15T11:48:50;39.63;;;28.38;;
79399;SDS011;68856;45.586;10.264;2024-02-15T11:51:27;45.42;;;29.52;;
79399;SDS011;68856;45.586;10.264;2024-02-15T11:54:01;43.67;;;27.70;;
79399;SDS011;68856;45.586;10.264;2024-02-15T11:56:31;40.70;;;28.83;;
79399;SDS011;68856;45.586;10.264;2024-02-15T11:59:02;44.78;;;29.15;;
79399;SDS011;68856;45.586;10.264;2024-02-15T12:01:31;44.53;;;30.02;;
79399;SDS011;68856;45.586;10.264;2024-02-15T12:04:16;42.80;;;28.80;;
79399;SDS011;68856;45.586;10.264;2024-02-15T12:07:00;41.10;;;29.83;;
79399;SDS011;68856;45.586;10.264;2024-02-15T12:09:45;40.70;;;28.67;;
79399;SDS011;68856;45.586;10.264;2024-02-15T12:12:29;36.80;;;29.98;;
79399;SDS011;68856;45.586;10.264;2024-02-15T12:15:14;39.67;;;29.58;;
79399;SDS011;68856;45.586;10.264;2024-02-15T12:18:15;41.97;;;30.35;;
79399;SDS011;68856;45.586;10.264;2024-02-15T12:21:00;43.63;;;31.92;;
79399;SDS011;68856;45.586;10.264;2024-02-15T12:23:28;41.05;;;30.02;;
79399;SDS011;68856;45.586;10.264;2024-02-15T12:25:57;46.40;;;29.98;;
79399;SDS011;68856;45.586;10.264;2024-02-15T12:28:23;39.58;;;29.10;;
79399;SDS011;68856;45.586;10.264;2024-02-15T12:30:54;44.85;;;30.90;;
79399;SDS011;68856;45.586;10.264;2024-02-15T12:33:21;45.10;;;31.92;;
79399;SDS011;68856;45.586;10.264;2024-02-15T12:35:47;39.70;;;31.05;;
79399;SDS011;68856;45.586;10.264;2024-02-15T12:38:15;39.60;;;31.73;;
79399;SDS011;68856;45.586;10.264;2024-02-15T12:40:41;45.80;;;31.70;;
79399;SDS011;68856;45.586;10.264;2024-02-15T12:43:09;42.90;;;33.30;;
79399;SDS011;68856;45.586;10.264;2024-02-15T12:45:37;44.13;;;30.92;;
79399;SDS011;68856;45.586;10.264;2024-02-15T12:48:04;44.45;;;31.10;;
79399;SDS011;68856;45.586;10.264;2024-02-15T12:50:31;46.67;;;30.50;;
79399;SDS011;68856;45.586;10.264;2024-02-15T12:52:57;43.35;;;31.52;;
79399;SDS011;68856;45.586;10.264;2024-02-15T12:55:34;40.28;;;31.25;;
79399;SDS011;68856;45.586;10.264;2024-02-15T12:58:03;39.20;;;31.60;;
79399;SDS011;68856;45.586;10.264;2024-02-15T13:00:33;41.65;;;32.28;;
79399;SDS011;68856;45.586;10.264;2024-02-15T13:03:02;40.42;;;31.15;;
79399;SDS011;68856;45.586;10.264;2024-02-15T13:05:29;46.75;;;33.38;;
79399;SDS011;68856;45.586;10.264;2024-02-15T13:07:55;41.38;;;32.08;;
79399;SDS011;68856;45.586;10.264;2024-02-15T13:10:23;39.92;;;30.33;;
79399;SDS011;68856;45.586;10.264;2024-02-15T13:12:51;42.13;;;32.30;;
79399;SDS011;68856;45.586;10.264;2024-02-15T13:15:18;42.72;;;33.38;;
79399;SDS011;68856;45.586;10.264;2024-02-15T13:17:46;42.45;;;31.73;;
79399;SDS011;68856;45.586;10.264;2024-02-15T13:20:16;40.67;;;32.03;;
79399;SDS011;68856;45.586;10.264;2024-02-15T13:22:45;43.05;;;32.25;;
79399;SDS011;68856;45.586;10.264;2024-02-15T13:25:13;39.55;;;32.70;;
79399;SDS011;68856;45.586;10.264;2024-02-15T13:27:41;45.13;;;34.10;;
79399;SDS011;68856;45.586;10.264;2024-02-15T13:30:09;41.22;;;32.35;;
79399;SDS011;68856;45.586;10.264;2024-02-15T13:32:36;39.05;;;31.73;;
79399;SDS011;68856;45.586;10.264;2024-02-15T13:35:06;41.40;;;32.72;;
79399;SDS011;68856;45.586;10.264;2024-02-15T13:37:42;45.60;;;34.22;;
79399;SDS011;68856;45.586;10.264;2024-02-15T13:40:11;47.17;;;33.85;;
79399;SDS011;68856;45.586;10.264;2024-02-15T13:42:41;42.72;;;34.97;;
79399;SDS011;68856;45.586;10.264;2024-02-15T13:45:11;46.05;;;34.88;;
79399;SDS011;68856;45.586;10.264;2024-02-15T13:47:38;43.60;;;34.47;;
79399;SDS011;68856;45.586;10.264;2024-02-15T13:50:05;39.90;;;33.00;;
79399;SDS011;68856;45.586;10.264;2024-02-15T13:52:33;44.35;;;33.45;;
79399;SDS011;68856;45.586;10.264;2024-02-15T13:54:59;44.03;;;34.22;;
79399;SDS011;68856;45.586;10.264;2024-02-15T13:57:25;42.42;;;34.22;;
79399;SDS011;68856;45.586;10.264;2024-02-15T13:59:51;45.80;;;34.55;;
79399;SDS011;68856;45.586;10.264;2024-02-15T14:02:17;43.67;;;33.92;;
79399;SDS011;68856;45.586;10.264;2024-02-15T14:04:44;46.47;;;33.85;;
79399;SDS011;68856;45.586;10.264;2024-02-15T14:07:10;44.15;;;34.97;;
79399;SDS011;68856;45.586;10.264;2024-02-15T14:09:37;47.45;;;34.80;;
79399;SDS011;68856;45.586;10.264;2024-02-15T14:12:03;47.35;;;34.40;;
79399;SDS011;68856;45.586;10.264;2024-02-15T14:14:30;45.28;;;35.90;;
79399;SDS011;68856;45.586;10.264;2024-02-15T14:16:57;45.85;;;33.88;;
79399;SDS011;68856;45.586;10.264;2024-02-15T14:19:23;43.30;;;33.45;;
79399;SDS011;68856;45.586;10.264;2024-02-15T14:21:51;45.05;;;33.13;;